sensor_id;sensor_type;location;lat;lon;timestamp;temperature;humidity
7972;DHT22;4031;49.758;6.120;2022-11-15T00:01:53;10.20;99.90
7972;DHT22;4031;49.758;6.120;2022-11-15T00:04:19;10.30;99.90
7972;DHT22;4031;49.758;6.120;2022-11-15T00:06:45;10.30;99.90
7972;DHT22;4031;49.758;6.120;2022-11-15T00:09:10;10.40;99.90
7972;DHT22;4031;49.758;6.120;2022-11-15T00:11:36;10.40;99.90
7972;DHT22;4031;49.758;6.120;2022-11-15T00:14:02;10.40;99.90
7972;DHT22;4031;49.758;6.120;2022-11-15T00:16:28;10.40;99.90
7972;DHT22;4031;49.758;6.120;2022-11-15T00:18:54;10.40;99.90
7972;DHT22;4031;49.758;6.120;2022-11-15T00:21:20;10.40;99.90
7972;DHT22;4031;49.758;6.120;2022-11-15T00:23:45;10.50;99.90
7972;DHT22;4031;49.758;6.120;2022-11-15T00:26:13;10.40;99.90
7972;DHT22;4031;49.758;6.120;2022-11-15T00:28:40;10.50;99.90
7972;DHT22;4031;49.758;6.120;2022-11-15T00:31:14;10.40;99.90
7972;DHT22;4031;49.758;6.120;2022-11-15T00:33:43;10.40;99.90
7972;DHT22;4031;49.758;6.120;2022-11-15T00:36:09;10.40;99.90
7972;DHT22;4031;49.758;6.120;2022-11-15T00:38:38;10.40;99.90
7972;DHT22;4031;49.758;6.120;2022-11-15T00:41:06;10.50;99.90
7972;DHT22;4031;49.758;6.120;2022-11-15T00:43:32;10.50;99.90
7972;DHT22;4031;49.758;6.120;2022-11-15T00:45:59;10.50;99.90
7972;DHT22;4031;49.758;6.120;2022-11-15T00:48:24;10.50;99.90
7972;DHT22;4031;49.758;6.120;2022-11-15T00:50:50;10.50;99.90
7972;DHT22;4031;49.758;6.120;2022-11-15T00:53:16;10.50;99.90
7972;DHT22;4031;49.758;6.120;2022-11-15T00:55:42;10.50;99.90
7972;DHT22;4031;49.758;6.120;2022-11-15T00:58:08;10.50;99.90
7972;DHT22;4031;49.758;6.120;2022-11-15T01:00:34;10.50;99.90
7972;DHT22;4031;49.758;6.120;2022-11-15T01:03:00;10.50;99.90
7972;DHT22;4031;49.758;6.120;2022-11-15T01:05:27;10.50;99.90
7972;DHT22;4031;49.758;6.120;2022-11-15T01:07:54;10.60;99.90
7972;DHT22;4031;49.758;6.120;2022-11-15T01:10:21;10.60;99.90
7972;DHT22;4031;49.758;6.120;2022-11-15T01:12:48;10.60;99.90
7972;DHT22;4031;49.758;6.120;2022-11-15T01:15:14;10.60;99.90
7972;DHT22;4031;49.758;6.120;2022-11-15T01:17:40;10.60;99.90
7972;DHT22;4031;49.758;6.120;2022-11-15T01:20:06;10.60;99.90
7972;DHT22;4031;49.758;6.120;2022-11-15T01:22:32;10.60;99.90
7972;DHT22;4031;49.758;6.120;2022-11-15T01:24:58;10.60;99.90
7972;DHT22;4031;49.758;6.120;2022-11-15T01:27:24;10.60;99.90
7972;DHT22;4031;49.758;6.120;2022-11-15T01:29:50;10.70;99.90
7972;DHT22;4031;49.758;6.120;2022-11-15T01:32:16;10.70;99.90
7972;DHT22;4031;49.758;6.120;2022-11-15T01:34:42;10.70;99.90
7972;DHT22;4031;49.758;6.120;2022-11-15T01:37:07;10.70;99.90
7972;DHT22;4031;49.758;6.120;2022-11-15T01:39:33;10.70;99.90
7972;DHT22;4031;49.758;6.120;2022-11-15T01:41:59;10.70;99.90
7972;DHT22;4031;49.758;6.120;2022-11-15T01:47:02;10.70;99.90
7972;DHT22;4031;49.758;6.120;2022-11-15T01:49:32;10.70;99.90
7972;DHT22;4031;49.758;6.120;2022-11-15T01:52:00;10.70;99.90
7972;DHT22;4031;49.758;6.120;2022-11-15T01:54:27;10.70;99.90
7972;DHT22;4031;49.758;6.120;2022-11-15T01:56:57;10.70;99.90
7972;DHT22;4031;49.758;6.120;2022-11-15T01:59:25;10.70;99.90
7972;DHT22;4031;49.758;6.120;2022-11-15T02:01:51;10.70;99.90
7972;DHT22;4031;49.758;6.120;2022-11-15T02:04:29;10.70;99.90
7972;DHT22;4031;49.758;6.120;2022-11-15T02:06:58;10.70;99.90
7972;DHT22;4031;49.758;6.120;2022-11-15T02:09:26;10.70;99.90
7972;DHT22;4031;49.758;6.120;2022-11-15T02:11:53;10.70;99.90
7972;DHT22;4031;49.758;6.120;2022-11-15T02:14:20;10.70;99.90
7972;DHT22;4031;49.758;6.120;2022-11-15T02:17:13;10.70;99.90
7972;DHT22;4031;49.758;6.120;2022-11-15T02:29:11;10.60;99.90
7972;DHT22;4031;49.758;6.120;2022-11-15T02:31:53;10.50;99.90
7972;DHT22;4031;49.758;6.120;2022-11-15T02:34:39;10.40;99.90
7972;DHT22;4031;49.758;6.120;2022-11-15T02:42:41;10.30;99.90
7972;DHT22;4031;49.758;6.120;2022-11-15T02:45:35;10.20;99.90
7972;DHT22;4031;49.758;6.120;2022-11-15T02:48:04;10.20;99.90
7972;DHT22;4031;49.758;6.120;2022-11-15T02:50:31;10.20;99.90
7972;DHT22;4031;49.758;6.120;2022-11-15T02:52:58;10.20;99.90
7972;DHT22;4031;49.758;6.120;2022-11-15T02:55:32;10.30;99.90
7972;DHT22;4031;49.758;6.120;2022-11-15T03:07:01;10.20;99.90
7972;DHT22;4031;49.758;6.120;2022-11-15T03:09:39;10.20;99.90
7972;DHT22;4031;49.758;6.120;2022-11-15T03:15:04;10.10;99.90
7972;DHT22;4031;49.758;6.120;2022-11-15T03:17:43;10.00;99.90
7972;DHT22;4031;49.758;6.120;2022-11-15T03:20:16;10.10;99.90
7972;DHT22;4031;49.758;6.120;2022-11-15T03:22:45;10.10;99.90
7972;DHT22;4031;49.758;6.120;2022-11-15T03:25:17;10.00;99.90
7972;DHT22;4031;49.758;6.120;2022-11-15T03:27:53;10.00;99.90
7972;DHT22;4031;49.758;6.120;2022-11-15T03:30:21;10.00;99.90
7972;DHT22;4031;49.758;6.120;2022-11-15T03:32:53;10.00;99.90
7972;DHT22;4031;49.758;6.120;2022-11-15T03:35:25;10.00;99.90
7972;DHT22;4031;49.758;6.120;2022-11-15T03:40:41;10.10;99.90
7972;DHT22;4031;49.758;6.120;2022-11-15T03:43:37;10.00;99.90
7972;DHT22;4031;49.758;6.120;2022-11-15T03:46:13;10.00;99.90
7972;DHT22;4031;49.758;6.120;2022-11-15T03:48:44;9.80;99.90
7972;DHT22;4031;49.758;6.120;2022-11-15T03:51:15;9.80;99.90
7972;DHT22;4031;49.758;6.120;2022-11-15T03:53:41;9.70;99.90
7972;DHT22;4031;49.758;6.120;2022-11-15T03:56:07;9.70;99.90
7972;DHT22;4031;49.758;6.120;2022-11-15T03:58:33;9.70;99.90
7972;DHT22;4031;49.758;6.120;2022-11-15T04:00:59;9.60;99.90
7972;DHT22;4031;49.758;6.120;2022-11-15T04:03:25;9.60;99.90
7972;DHT22;4031;49.758;6.120;2022-11-15T04:05:51;9.50;99.90
7972;DHT22;4031;49.758;6.120;2022-11-15T04:08:16;9.50;99.90
7972;DHT22;4031;49.758;6.120;2022-11-15T04:10:42;9.60;99.90
7972;DHT22;4031;49.758;6.120;2022-11-15T04:13:08;9.70;99.90
7972;DHT22;4031;49.758;6.120;2022-11-15T04:15:34;9.70;99.90
7972;DHT22;4031;49.758;6.120;2022-11-15T04:18:00;9.70;99.90
7972;DHT22;4031;49.758;6.120;2022-11-15T04:20:28;9.70;99.90
7972;DHT22;4031;49.758;6.120;2022-11-15T04:23:17;9.50;99.90
7972;DHT22;4031;49.758;6.120;2022-11-15T04:26:08;9.40;99.90
7972;DHT22;4031;49.758;6.120;2022-11-15T04:28:36;9.40;99.90
7972;DHT22;4031;49.758;6.120;2022-11-15T04:31:22;9.30;99.90
7972;DHT22;4031;49.758;6.120;2022-11-15T04:33:47;9.30;99.90
7972;DHT22;4031;49.758;6.120;2022-11-15T04:36:13;9.20;99.90
7972;DHT22;4031;49.758;6.120;2022-11-15T04:38:57;9.20;99.90
7972;DHT22;4031;49.758;6.120;2022-11-15T04:41:23;9.10;99.90
7972;DHT22;4031;49.758;6.120;2022-11-15T04:43:49;9.00;99.90
7972;DHT22;4031;49.758;6.120;2022-11-15T04:46:15;9.00;99.90
7972;DHT22;4031;49.758;6.120;2022-11-15T04:48:40;9.00;99.90
7972;DHT22;4031;49.758;6.120;2022-11-15T04:51:06;8.90;99.90
7972;DHT22;4031;49.758;6.120;2022-11-15T04:53:32;8.70;99.90
7972;DHT22;4031;49.758;6.120;2022-11-15T04:55:58;8.80;99.90
7972;DHT22;4031;49.758;6.120;2022-11-15T04:58:23;8.60;99.90
7972;DHT22;4031;49.758;6.120;2022-11-15T05:00:49;8.60;99.90
7972;DHT22;4031;49.758;6.120;2022-11-15T05:03:15;8.70;99.90
7972;DHT22;4031;49.758;6.120;2022-11-15T05:05:59;8.70;99.90
7972;DHT22;4031;49.758;6.120;2022-11-15T05:08:25;8.70;99.90
7972;DHT22;4031;49.758;6.120;2022-11-15T05:10:51;8.70;99.90
7972;DHT22;4031;49.758;6.120;2022-11-15T05:13:17;8.70;99.90
7972;DHT22;4031;49.758;6.120;2022-11-15T05:15:43;8.70;99.90
7972;DHT22;4031;49.758;6.120;2022-11-15T05:18:09;8.60;99.90
7972;DHT22;4031;49.758;6.120;2022-11-15T05:20:35;8.60;99.90
7972;DHT22;4031;49.758;6.120;2022-11-15T05:23:01;8.50;99.90
7972;DHT22;4031;49.758;6.120;2022-11-15T05:25:27;8.60;99.90
7972;DHT22;4031;49.758;6.120;2022-11-15T05:27:52;8.50;99.90
7972;DHT22;4031;49.758;6.120;2022-11-15T05:30:18;8.40;99.90
7972;DHT22;4031;49.758;6.120;2022-11-15T05:32:44;8.40;99.90
7972;DHT22;4031;49.758;6.120;2022-11-15T05:35:21;8.30;99.90
7972;DHT22;4031;49.758;6.120;2022-11-15T05:37:57;8.30;99.90
7972;DHT22;4031;49.758;6.120;2022-11-15T05:40:23;8.30;99.90
7972;DHT22;4031;49.758;6.120;2022-11-15T05:42:49;8.40;99.90
7972;DHT22;4031;49.758;6.120;2022-11-15T05:45:15;8.30;99.90
7972;DHT22;4031;49.758;6.120;2022-11-15T05:47:41;8.40;99.90
7972;DHT22;4031;49.758;6.120;2022-11-15T05:50:09;8.40;99.90
7972;DHT22;4031;49.758;6.120;2022-11-15T05:52:39;8.40;99.90
7972;DHT22;4031;49.758;6.120;2022-11-15T05:55:07;8.50;99.90
7972;DHT22;4031;49.758;6.120;2022-11-15T05:57:34;8.60;99.90
7972;DHT22;4031;49.758;6.120;2022-11-15T06:00:00;8.60;99.90
7972;DHT22;4031;49.758;6.120;2022-11-15T06:02:27;8.70;99.90
7972;DHT22;4031;49.758;6.120;2022-11-15T06:04:52;8.70;99.90
7972;DHT22;4031;49.758;6.120;2022-11-15T06:07:18;8.60;99.90
7972;DHT22;4031;49.758;6.120;2022-11-15T06:09:44;8.50;99.90
7972;DHT22;4031;49.758;6.120;2022-11-15T06:12:09;8.40;99.90
7972;DHT22;4031;49.758;6.120;2022-11-15T06:14:35;8.40;99.90
7972;DHT22;4031;49.758;6.120;2022-11-15T06:17:01;8.50;99.90
7972;DHT22;4031;49.758;6.120;2022-11-15T06:19:28;8.50;99.90
7972;DHT22;4031;49.758;6.120;2022-11-15T06:21:58;8.40;99.90
7972;DHT22;4031;49.758;6.120;2022-11-15T06:24:25;8.40;99.90
7972;DHT22;4031;49.758;6.120;2022-11-15T06:26:51;8.40;99.90
7972;DHT22;4031;49.758;6.120;2022-11-15T06:29:16;8.50;99.90
7972;DHT22;4031;49.758;6.120;2022-11-15T06:31:42;8.50;99.90
7972;DHT22;4031;49.758;6.120;2022-11-15T06:34:08;8.50;99.90
7972;DHT22;4031;49.758;6.120;2022-11-15T06:36:34;8.50;99.90
7972;DHT22;4031;49.758;6.120;2022-11-15T06:39:01;8.40;99.90
7972;DHT22;4031;49.758;6.120;2022-11-15T06:41:28;8.40;99.90
7972;DHT22;4031;49.758;6.120;2022-11-15T06:43:54;8.30;99.90
7972;DHT22;4031;49.758;6.120;2022-11-15T06:46:19;8.30;99.90
7972;DHT22;4031;49.758;6.120;2022-11-15T06:48:45;8.30;99.90
7972;DHT22;4031;49.758;6.120;2022-11-15T06:51:11;8.30;99.90
7972;DHT22;4031;49.758;6.120;2022-11-15T06:53:36;8.20;99.90
7972;DHT22;4031;49.758;6.120;2022-11-15T06:56:06;8.20;99.90
7972;DHT22;4031;49.758;6.120;2022-11-15T06:58:32;8.20;99.90
7972;DHT22;4031;49.758;6.120;2022-11-15T07:01:03;8.20;99.90
7972;DHT22;4031;49.758;6.120;2022-11-15T07:03:30;8.20;99.90
7972;DHT22;4031;49.758;6.120;2022-11-15T07:05:57;8.20;99.90
7972;DHT22;4031;49.758;6.120;2022-11-15T07:08:24;8.10;99.90
7972;DHT22;4031;49.758;6.120;2022-11-15T07:10:50;8.10;99.90
7972;DHT22;4031;49.758;6.120;2022-11-15T07:13:16;8.00;99.90
7972;DHT22;4031;49.758;6.120;2022-11-15T07:15:41;8.00;99.90
7972;DHT22;4031;49.758;6.120;2022-11-15T07:18:07;8.00;99.90
7972;DHT22;4031;49.758;6.120;2022-11-15T07:20:33;8.00;99.90
7972;DHT22;4031;49.758;6.120;2022-11-15T07:23:03;8.00;99.90
7972;DHT22;4031;49.758;6.120;2022-11-15T07:25:30;8.00;99.90
7972;DHT22;4031;49.758;6.120;2022-11-15T07:27:59;8.00;99.90
7972;DHT22;4031;49.758;6.120;2022-11-15T07:30:26;8.00;99.90
7972;DHT22;4031;49.758;6.120;2022-11-15T07:33:01;8.00;99.90
7972;DHT22;4031;49.758;6.120;2022-11-15T07:35:28;8.00;99.90
7972;DHT22;4031;49.758;6.120;2022-11-15T07:37:58;8.00;99.90
7972;DHT22;4031;49.758;6.120;2022-11-15T07:40:27;8.00;99.90
7972;DHT22;4031;49.758;6.120;2022-11-15T07:42:59;8.00;99.90
7972;DHT22;4031;49.758;6.120;2022-11-15T07:45:29;8.00;99.90
7972;DHT22;4031;49.758;6.120;2022-11-15T07:47:55;8.00;99.90
7972;DHT22;4031;49.758;6.120;2022-11-15T07:50:23;7.90;99.90
7972;DHT22;4031;49.758;6.120;2022-11-15T07:52:56;8.00;99.90
7972;DHT22;4031;49.758;6.120;2022-11-15T07:55:25;8.00;99.90
7972;DHT22;4031;49.758;6.120;2022-11-15T07:57:52;8.00;99.90
7972;DHT22;4031;49.758;6.120;2022-11-15T08:00:19;8.10;99.90
7972;DHT22;4031;49.758;6.120;2022-11-15T08:02:45;8.10;99.90
7972;DHT22;4031;49.758;6.120;2022-11-15T08:05:11;8.00;99.90
7972;DHT22;4031;49.758;6.120;2022-11-15T08:07:36;7.90;99.90
7972;DHT22;4031;49.758;6.120;2022-11-15T08:10:04;7.80;99.90
7972;DHT22;4031;49.758;6.120;2022-11-15T08:12:31;7.60;99.90
7972;DHT22;4031;49.758;6.120;2022-11-15T08:14:57;7.50;99.90
7972;DHT22;4031;49.758;6.120;2022-11-15T08:17:24;7.50;99.90
7972;DHT22;4031;49.758;6.120;2022-11-15T08:19:50;7.70;99.90
7972;DHT22;4031;49.758;6.120;2022-11-15T08:22:16;7.70;99.90
7972;DHT22;4031;49.758;6.120;2022-11-15T08:24:42;7.80;99.90
7972;DHT22;4031;49.758;6.120;2022-11-15T08:27:08;7.90;99.90
7972;DHT22;4031;49.758;6.120;2022-11-15T08:29:45;8.10;99.90
7972;DHT22;4031;49.758;6.120;2022-11-15T08:32:11;8.10;99.90
7972;DHT22;4031;49.758;6.120;2022-11-15T08:34:38;8.20;99.90
7972;DHT22;4031;49.758;6.120;2022-11-15T08:37:04;8.20;99.90
7972;DHT22;4031;49.758;6.120;2022-11-15T08:39:30;8.30;99.90
7972;DHT22;4031;49.758;6.120;2022-11-15T08:41:56;8.40;99.90
7972;DHT22;4031;49.758;6.120;2022-11-15T08:44:22;8.40;99.90
7972;DHT22;4031;49.758;6.120;2022-11-15T08:46:49;8.60;99.90
7972;DHT22;4031;49.758;6.120;2022-11-15T08:49:16;8.80;99.90
7972;DHT22;4031;49.758;6.120;2022-11-15T08:51:42;9.20;99.90
7972;DHT22;4031;49.758;6.120;2022-11-15T08:54:08;9.40;99.90
7972;DHT22;4031;49.758;6.120;2022-11-15T08:56:33;9.60;99.90
7972;DHT22;4031;49.758;6.120;2022-11-15T08:58:59;9.90;99.90
7972;DHT22;4031;49.758;6.120;2022-11-15T09:01:25;10.30;99.90
7972;DHT22;4031;49.758;6.120;2022-11-15T09:03:50;10.60;99.90
7972;DHT22;4031;49.758;6.120;2022-11-15T09:06:16;10.80;99.90
7972;DHT22;4031;49.758;6.120;2022-11-15T09:08:42;10.90;99.90
7972;DHT22;4031;49.758;6.120;2022-11-15T09:11:09;11.00;99.90
7972;DHT22;4031;49.758;6.120;2022-11-15T09:13:36;11.00;99.90
7972;DHT22;4031;49.758;6.120;2022-11-15T09:16:03;11.00;99.90
7972;DHT22;4031;49.758;6.120;2022-11-15T09:18:30;11.00;99.90
7972;DHT22;4031;49.758;6.120;2022-11-15T09:20:59;10.90;99.90
7972;DHT22;4031;49.758;6.120;2022-11-15T09:23:27;10.90;99.90
7972;DHT22;4031;49.758;6.120;2022-11-15T09:25:59;10.90;99.90
7972;DHT22;4031;49.758;6.120;2022-11-15T09:28:27;10.80;99.90
7972;DHT22;4031;49.758;6.120;2022-11-15T09:30:57;10.80;99.90
7972;DHT22;4031;49.758;6.120;2022-11-15T09:33:24;10.90;99.90
7972;DHT22;4031;49.758;6.120;2022-11-15T09:35:50;11.10;99.90
7972;DHT22;4031;49.758;6.120;2022-11-15T09:38:16;11.30;99.90
7972;DHT22;4031;49.758;6.120;2022-11-15T09:40:42;11.70;99.90
7972;DHT22;4031;49.758;6.120;2022-11-15T09:48:50;12.10;99.90
7972;DHT22;4031;49.758;6.120;2022-11-15T09:54:10;12.10;99.90
7972;DHT22;4031;49.758;6.120;2022-11-15T09:56:41;12.10;99.90
7972;DHT22;4031;49.758;6.120;2022-11-15T09:59:27;12.10;99.90
7972;DHT22;4031;49.758;6.120;2022-11-15T10:04:43;12.00;99.90
7972;DHT22;4031;49.758;6.120;2022-11-15T10:12:55;12.30;99.90
7972;DHT22;4031;49.758;6.120;2022-11-15T10:15:21;12.30;99.90
7972;DHT22;4031;49.758;6.120;2022-11-15T10:18:13;12.50;99.90
7972;DHT22;4031;49.758;6.120;2022-11-15T10:20:52;12.80;99.90
7972;DHT22;4031;49.758;6.120;2022-11-15T10:23:22;12.80;99.90
7972;DHT22;4031;49.758;6.120;2022-11-15T10:25:52;12.80;99.90
7972;DHT22;4031;49.758;6.120;2022-11-15T10:28:30;12.70;99.90
7972;DHT22;4031;49.758;6.120;2022-11-15T10:31:00;12.60;99.90
7972;DHT22;4031;49.758;6.120;2022-11-15T10:33:31;12.50;99.90
7972;DHT22;4031;49.758;6.120;2022-11-15T10:49:23;13.80;99.90
7972;DHT22;4031;49.758;6.120;2022-11-15T10:52:30;14.40;99.90
7972;DHT22;4031;49.758;6.120;2022-11-15T10:55:21;15.20;99.90
7972;DHT22;4031;49.758;6.120;2022-11-15T10:57:58;16.20;99.90
7972;DHT22;4031;49.758;6.120;2022-11-15T11:00:34;16.40;99.90
7972;DHT22;4031;49.758;6.120;2022-11-15T11:03:04;16.20;99.90
7972;DHT22;4031;49.758;6.120;2022-11-15T11:05:36;16.20;99.90
7972;DHT22;4031;49.758;6.120;2022-11-15T11:10:53;16.00;99.90
7972;DHT22;4031;49.758;6.120;2022-11-15T11:13:26;15.60;99.90
7972;DHT22;4031;49.758;6.120;2022-11-15T11:27:05;13.30;99.90
7972;DHT22;4031;49.758;6.120;2022-11-15T11:29:57;13.10;99.90
7972;DHT22;4031;49.758;6.120;2022-11-15T11:32:55;13.10;99.90
7972;DHT22;4031;49.758;6.120;2022-11-15T11:38:48;13.20;99.90
7972;DHT22;4031;49.758;6.120;2022-11-15T11:47:24;13.80;99.90
7972;DHT22;4031;49.758;6.120;2022-11-15T11:50:00;13.90;99.90
7972;DHT22;4031;49.758;6.120;2022-11-15T11:52:43;13.90;99.90
7972;DHT22;4031;49.758;6.120;2022-11-15T11:58:25;13.90;99.90
7972;DHT22;4031;49.758;6.120;2022-11-15T12:07:13;14.10;99.90
7972;DHT22;4031;49.758;6.120;2022-11-15T12:12:41;14.20;99.90
7972;DHT22;4031;49.758;6.120;2022-11-15T12:15:42;14.30;99.90
7972;DHT22;4031;49.758;6.120;2022-11-15T12:18:15;14.20;99.90
7972;DHT22;4031;49.758;6.120;2022-11-15T12:21:13;14.00;99.90
7972;DHT22;4031;49.758;6.120;2022-11-15T12:24:02;13.90;99.90
7972;DHT22;4031;49.758;6.120;2022-11-15T12:26:37;13.90;99.90
7972;DHT22;4031;49.758;6.120;2022-11-15T12:29:19;13.90;99.90
7972;DHT22;4031;49.758;6.120;2022-11-15T12:31:54;13.90;99.90
7972;DHT22;4031;49.758;6.120;2022-11-15T12:36:54;14.00;99.90
7972;DHT22;4031;49.758;6.120;2022-11-15T12:39:20;14.20;99.90
7972;DHT22;4031;49.758;6.120;2022-11-15T12:59:52;14.30;99.90
7972;DHT22;4031;49.758;6.120;2022-11-15T13:02:43;14.20;99.90
7972;DHT22;4031;49.758;6.120;2022-11-15T13:17:45;14.70;99.90
7972;DHT22;4031;49.758;6.120;2022-11-15T13:22:40;14.70;99.90
7972;DHT22;4031;49.758;6.120;2022-11-15T13:28:34;14.60;99.90
7972;DHT22;4031;49.758;6.120;2022-11-15T13:31:26;14.40;99.90
7972;DHT22;4031;49.758;6.120;2022-11-15T13:33:55;14.30;99.90
7972;DHT22;4031;49.758;6.120;2022-11-15T13:36:32;14.10;99.90
7972;DHT22;4031;49.758;6.120;2022-11-15T13:39:14;14.00;99.90
7972;DHT22;4031;49.758;6.120;2022-11-15T13:41:51;13.90;99.90
7972;DHT22;4031;49.758;6.120;2022-11-15T13:44:29;13.70;99.90
7972;DHT22;4031;49.758;6.120;2022-11-15T13:47:13;13.70;99.90
7972;DHT22;4031;49.758;6.120;2022-11-15T13:49:41;13.50;99.90
7972;DHT22;4031;49.758;6.120;2022-11-15T13:52:12;13.40;99.90
7972;DHT22;4031;49.758;6.120;2022-11-15T13:54:59;13.30;99.90
7972;DHT22;4031;49.758;6.120;2022-11-15T13:57:50;13.20;99.90
7972;DHT22;4031;49.758;6.120;2022-11-15T14:05:41;13.00;99.90
7972;DHT22;4031;49.758;6.120;2022-11-15T14:08:23;13.10;99.90
7972;DHT22;4031;49.758;6.120;2022-11-15T14:11:26;13.00;99.90
7972;DHT22;4031;49.758;6.120;2022-11-15T14:16:40;13.00;99.90
7972;DHT22;4031;49.758;6.120;2022-11-15T14:19:11;13.10;99.90
7972;DHT22;4031;49.758;6.120;2022-11-15T14:27:38;13.30;99.90
7972;DHT22;4031;49.758;6.120;2022-11-15T14:30:05;13.50;99.90
7972;DHT22;4031;49.758;6.120;2022-11-15T14:35:20;13.30;99.90
7972;DHT22;4031;49.758;6.120;2022-11-15T14:37:47;13.30;99.90
7972;DHT22;4031;49.758;6.120;2022-11-15T14:40:19;13.20;99.90
7972;DHT22;4031;49.758;6.120;2022-11-15T14:42:47;13.20;99.90
7972;DHT22;4031;49.758;6.120;2022-11-15T14:45:21;13.10;99.90
7972;DHT22;4031;49.758;6.120;2022-11-15T14:47:47;13.10;99.90
7972;DHT22;4031;49.758;6.120;2022-11-15T14:50:15;13.00;99.90
7972;DHT22;4031;49.758;6.120;2022-11-15T14:52:43;12.90;99.90
7972;DHT22;4031;49.758;6.120;2022-11-15T14:55:27;12.90;99.90
7972;DHT22;4031;49.758;6.120;2022-11-15T14:57:57;12.80;99.90
7972;DHT22;4031;49.758;6.120;2022-11-15T15:00:23;12.80;99.90
7972;DHT22;4031;49.758;6.120;2022-11-15T15:02:52;12.70;99.90
7972;DHT22;4031;49.758;6.120;2022-11-15T15:05:24;12.70;99.90
7972;DHT22;4031;49.758;6.120;2022-11-15T15:07:57;12.60;99.90
7972;DHT22;4031;49.758;6.120;2022-11-15T15:10:24;12.60;99.90
7972;DHT22;4031;49.758;6.120;2022-11-15T15:12:51;12.50;99.90
7972;DHT22;4031;49.758;6.120;2022-11-15T15:15:34;12.50;99.90
7972;DHT22;4031;49.758;6.120;2022-11-15T15:18:02;12.50;99.90
7972;DHT22;4031;49.758;6.120;2022-11-15T15:20:29;12.40;99.90
7972;DHT22;4031;49.758;6.120;2022-11-15T15:22:56;12.40;99.90
7972;DHT22;4031;49.758;6.120;2022-11-15T15:25:33;12.50;99.90
7972;DHT22;4031;49.758;6.120;2022-11-15T15:28:00;12.50;99.90
7972;DHT22;4031;49.758;6.120;2022-11-15T15:30:28;12.40;99.90
7972;DHT22;4031;49.758;6.120;2022-11-15T15:32:55;12.30;99.90
7972;DHT22;4031;49.758;6.120;2022-11-15T15:35:21;12.20;99.90
7972;DHT22;4031;49.758;6.120;2022-11-15T15:37:48;12.20;99.90
7972;DHT22;4031;49.758;6.120;2022-11-15T15:42:42;12.00;99.90
7972;DHT22;4031;49.758;6.120;2022-11-15T15:45:09;12.00;99.90
7972;DHT22;4031;49.758;6.120;2022-11-15T15:47:35;11.90;99.90
7972;DHT22;4031;49.758;6.120;2022-11-15T15:50:02;11.90;99.90
7972;DHT22;4031;49.758;6.120;2022-11-15T15:52:28;11.80;99.90
7972;DHT22;4031;49.758;6.120;2022-11-15T15:54:54;11.80;99.90
7972;DHT22;4031;49.758;6.120;2022-11-15T15:57:20;11.80;99.90
7972;DHT22;4031;49.758;6.120;2022-11-15T15:59:46;11.80;99.90
7972;DHT22;4031;49.758;6.120;2022-11-15T16:02:12;11.80;99.90
7972;DHT22;4031;49.758;6.120;2022-11-15T16:04:38;11.70;99.90
7972;DHT22;4031;49.758;6.120;2022-11-15T16:07:04;11.70;99.90
7972;DHT22;4031;49.758;6.120;2022-11-15T16:09:30;11.60;99.90
7972;DHT22;4031;49.758;6.120;2022-11-15T16:12:15;11.60;99.90
7972;DHT22;4031;49.758;6.120;2022-11-15T16:14:42;11.50;99.90
7972;DHT22;4031;49.758;6.120;2022-11-15T16:17:16;11.50;99.90
7972;DHT22;4031;49.758;6.120;2022-11-15T16:19:43;11.60;99.90
7972;DHT22;4031;49.758;6.120;2022-11-15T16:22:09;11.50;99.90
7972;DHT22;4031;49.758;6.120;2022-11-15T16:24:35;11.50;99.90
7972;DHT22;4031;49.758;6.120;2022-11-15T16:27:01;11.50;99.90
7972;DHT22;4031;49.758;6.120;2022-11-15T16:29:27;11.50;99.90
7972;DHT22;4031;49.758;6.120;2022-11-15T16:31:53;11.50;99.90
7972;DHT22;4031;49.758;6.120;2022-11-15T16:34:19;11.40;99.90
7972;DHT22;4031;49.758;6.120;2022-11-15T16:36:46;11.40;99.90
7972;DHT22;4031;49.758;6.120;2022-11-15T16:39:12;11.40;99.90
7972;DHT22;4031;49.758;6.120;2022-11-15T16:41:43;11.40;99.90
7972;DHT22;4031;49.758;6.120;2022-11-15T16:44:12;11.30;99.90
7972;DHT22;4031;49.758;6.120;2022-11-15T16:46:41;11.40;99.90
7972;DHT22;4031;49.758;6.120;2022-11-15T16:49:13;11.50;99.90
7972;DHT22;4031;49.758;6.120;2022-11-15T16:51:46;11.40;99.90
7972;DHT22;4031;49.758;6.120;2022-11-15T16:54:13;11.40;99.90
7972;DHT22;4031;49.758;6.120;2022-11-15T16:56:39;11.50;99.90
7972;DHT22;4031;49.758;6.120;2022-11-15T16:59:06;11.50;99.90
7972;DHT22;4031;49.758;6.120;2022-11-15T17:01:37;11.50;99.90
7972;DHT22;4031;49.758;6.120;2022-11-15T17:04:11;11.50;99.90
7972;DHT22;4031;49.758;6.120;2022-11-15T17:06:39;11.50;99.90
7972;DHT22;4031;49.758;6.120;2022-11-15T17:09:06;11.50;99.90
7972;DHT22;4031;49.758;6.120;2022-11-15T17:11:35;11.60;99.90
7972;DHT22;4031;49.758;6.120;2022-11-15T17:14:00;11.50;99.90
7972;DHT22;4031;49.758;6.120;2022-11-15T17:16:26;11.50;99.90
7972;DHT22;4031;49.758;6.120;2022-11-15T17:18:52;11.70;99.90
7972;DHT22;4031;49.758;6.120;2022-11-15T17:21:20;11.60;99.90
7972;DHT22;4031;49.758;6.120;2022-11-15T17:23:47;11.50;99.90
7972;DHT22;4031;49.758;6.120;2022-11-15T17:26:14;11.60;99.90
7972;DHT22;4031;49.758;6.120;2022-11-15T17:28:40;11.60;99.90
7972;DHT22;4031;49.758;6.120;2022-11-15T17:31:11;11.50;99.90
7972;DHT22;4031;49.758;6.120;2022-11-15T17:33:38;11.50;99.90
7972;DHT22;4031;49.758;6.120;2022-11-15T17:36:10;11.60;99.90
7972;DHT22;4031;49.758;6.120;2022-11-15T17:38:36;11.50;99.90
7972;DHT22;4031;49.758;6.120;2022-11-15T17:41:08;11.50;99.90
7972;DHT22;4031;49.758;6.120;2022-11-15T17:43:36;11.50;99.90
7972;DHT22;4031;49.758;6.120;2022-11-15T17:46:07;11.50;99.90
7972;DHT22;4031;49.758;6.120;2022-11-15T17:48:35;11.50;99.90
7972;DHT22;4031;49.758;6.120;2022-11-15T17:51:03;11.50;99.90
7972;DHT22;4031;49.758;6.120;2022-11-15T17:53:36;11.50;99.90
7972;DHT22;4031;49.758;6.120;2022-11-15T17:58:48;11.50;99.90
7972;DHT22;4031;49.758;6.120;2022-11-15T18:01:29;11.40;99.90
7972;DHT22;4031;49.758;6.120;2022-11-15T18:03:57;11.50;99.90
7972;DHT22;4031;49.758;6.120;2022-11-15T18:06:25;11.40;99.90
7972;DHT22;4031;49.758;6.120;2022-11-15T18:08:54;11.40;99.90
7972;DHT22;4031;49.758;6.120;2022-11-15T18:11:22;11.40;99.90
7972;DHT22;4031;49.758;6.120;2022-11-15T18:13:54;11.40;99.90
7972;DHT22;4031;49.758;6.120;2022-11-15T18:16:24;11.40;99.90
7972;DHT22;4031;49.758;6.120;2022-11-15T18:18:51;11.40;99.90
7972;DHT22;4031;49.758;6.120;2022-11-15T18:21:22;11.40;99.90
7972;DHT22;4031;49.758;6.120;2022-11-15T18:23:55;11.40;99.90
7972;DHT22;4031;49.758;6.120;2022-11-15T18:26:24;11.40;99.90
7972;DHT22;4031;49.758;6.120;2022-11-15T18:28:54;11.40;99.90
7972;DHT22;4031;49.758;6.120;2022-11-15T18:31:27;11.40;99.90
7972;DHT22;4031;49.758;6.120;2022-11-15T18:33:54;11.30;99.90
7972;DHT22;4031;49.758;6.120;2022-11-15T18:36:24;11.30;99.90
7972;DHT22;4031;49.758;6.120;2022-11-15T18:38:58;11.40;99.90
7972;DHT22;4031;49.758;6.120;2022-11-15T18:41:26;11.40;99.90
7972;DHT22;4031;49.758;6.120;2022-11-15T18:43:54;11.40;99.90
7972;DHT22;4031;49.758;6.120;2022-11-15T18:46:22;11.40;99.90
7972;DHT22;4031;49.758;6.120;2022-11-15T18:48:50;11.40;99.90
7972;DHT22;4031;49.758;6.120;2022-11-15T18:51:19;11.40;99.90
7972;DHT22;4031;49.758;6.120;2022-11-15T18:53:47;11.40;99.90
7972;DHT22;4031;49.758;6.120;2022-11-15T18:56:17;11.50;99.90
7972;DHT22;4031;49.758;6.120;2022-11-15T18:58:46;11.50;99.90
7972;DHT22;4031;49.758;6.120;2022-11-15T19:01:18;11.50;99.90
7972;DHT22;4031;49.758;6.120;2022-11-15T19:03:47;11.50;99.90